Jard Los Almendros, Puerto Rico
Current Conditions -  °F | °C
As of 12:53 PM on Monday 24 Nov 2014 (Local Time) from TJNR Reporting Station
Broken Clouds Broken Clouds  
Wind Chill: 85°   Ceiling: 8000
Heat Index: 93°   Visibility: 10mi
Dew Point: 75°   Wind: 8mph
Humidity: 72%   Direction: 100°E
Pressure: 30.05"   Gusts: NA
Location:  18.0098°N, 65.8982°W
Report Text: TJNR 241653Z AUTO 10007KT 10SM FEW020 SCT060 BKN080 29/24 A3005 RMK AO2 RAB17E27 SLP176 P0000 T02940239 $
Loading
Personal Weather Stations






























Interactive Weather Map New forecast layout! Learn more

10-Day Weather Forecast

Advertisements
Track Severe Weather on mobile